Brooklin, Maine
Current Conditions -  °F | °C
As of 9:55 AM on Wednesday 22 Oct 2014 (Local Time) from KBHB Reporting Station
Broken Clouds Broken Clouds  
Wind Chill: 50°   Ceiling: 2400
Heat Index: 50°   Visibility: 10mi
Dew Point: 48°   Wind: 13mph
Humidity: 94%   Direction: 20°NNE
Pressure: 30.17"   Gusts: NA
Location:  44.27°N, 68.57°W
Report Text: KBHB 221355Z AUTO 02011KT 10SM FEW010 SCT015 BKN024 10/09 A3017 RMK AO1
Loading
Personal Weather Stations






























Interactive Weather Map
Tropical Storm Tracking
New forecast layout! Learn more

10-Day Weather Forecast

Advertisements
Track Severe Weather on mobile